Time;durP1;ratioP1;P1;durP2;ratioP2;P2;SDS_P1;SDS_P2;PMS_P1;PMS_P2;Temp;Humidity;BMP_temperature;BMP_pressure;BME280_temperature;BME280_humidity;BME280_pressure;Samples;Min_cycle;Max_cycle;Signal;HPM_P1;HPM_P2
2021/11/19 00:00:00;;;;;;;21.98;10.77;;;11.90;99.90;;;;;;5058176;28;20086;-69
2021/11/19 00:02:29;;;;;;;27.00;10.45;;;11.90;99.90;;;;;;5057113;28;20036;-69
2021/11/19 00:04:55;;;;;;;21.70;10.55;;;12.00;99.90;;;;;;5091795;28;20667;-69
2021/11/19 00:07:21;;;;;;;17.73;9.45;;;12.00;99.90;;;;;;5060886;28;20059;-69
2021/11/19 00:09:47;;;;;;;18.67;8.73;;;12.00;99.90;;;;;;5093572;28;20044;-69
2021/11/19 00:12:12;;;;;;;20.48;9.27;;;12.00;99.90;;;;;;5095581;28;20044;-69
2021/11/19 00:14:38;;;;;;;19.73;8.95;;;12.00;99.90;;;;;;5061357;28;20127;-69
2021/11/19 00:17:05;;;;;;;24.60;9.93;;;12.00;99.90;;;;;;5058803;28;20528;-69
2021/11/19 00:19:36;;;;;;;26.83;9.77;;;12.00;99.90;;;;;;5059083;28;20056;-69
2021/11/19 00:22:02;;;;;;;22.98;8.73;;;12.00;99.90;;;;;;5060140;28;20119;-69
2021/11/19 00:24:28;;;;;;;22.67;9.00;;;12.10;99.90;;;;;;5062115;28;20144;-69
2021/11/19 00:26:54;;;;;;;19.30;9.38;;;12.10;99.90;;;;;;5060749;28;20467;-69
2021/11/19 00:29:21;;;;;;;22.80;9.18;;;12.10;99.90;;;;;;5059585;28;20056;-69
2021/11/19 00:31:47;;;;;;;21.48;9.40;;;12.00;99.90;;;;;;5062082;28;20032;-69
2021/11/19 00:34:14;;;;;;;21.13;9.05;;;12.10;99.90;;;;;;5061836;28;20468;-69
2021/11/19 00:36:42;;;;;;;21.08;9.50;;;12.10;99.90;;;;;;5060599;28;20048;-69
2021/11/19 00:39:11;;;;;;;18.27;8.43;;;12.10;99.90;;;;;;5060898;28;20550;-69
2021/11/19 00:41:39;;;;;;;16.70;7.60;;;12.10;99.90;;;;;;5061138;28;20029;-69
2021/11/19 00:44:06;;;;;;;13.73;7.90;;;12.10;99.90;;;;;;5061328;28;20119;-69
2021/11/19 00:46:31;;;;;;;26.08;8.77;;;12.10;99.90;;;;;;5063384;28;20051;-69
2021/11/19 00:48:57;;;;;;;15.52;7.70;;;12.20;99.90;;;;;;5059761;28;20394;-69
2021/11/19 00:51:27;;;;;;;22.60;8.50;;;12.20;99.90;;;;;;5058816;28;20037;-69
2021/11/19 00:53:55;;;;;;;16.63;8.18;;;12.20;99.90;;;;;;5059795;28;20124;-69
2021/11/19 00:56:24;;;;;;;20.70;8.45;;;12.20;99.90;;;;;;5091636;28;20040;-69
2021/11/19 00:58:52;;;;;;;16.40;8.23;;;12.20;99.90;;;;;;5059454;28;20041;-69
2021/11/19 01:01:30;;;;;;;21.60;7.95;;;12.20;99.90;;;;;;5061474;28;20364;-69
2021/11/19 01:03:56;;;;;;;20.95;7.53;;;12.20;99.90;;;;;;5062792;28;20113;-69
2021/11/19 01:06:22;;;;;;;18.52;7.90;;;12.20;99.90;;;;;;5058494;28;20090;-69
2021/11/19 01:08:49;;;;;;;20.38;8.13;;;12.10;99.90;;;;;;5091965;28;20045;-69
2021/11/19 01:11:21;;;;;;;21.10;6.68;;;12.10;99.90;;;;;;5059583;28;20071;-69
2021/11/19 01:13:49;;;;;;;16.83;7.65;;;12.20;99.90;;;;;;5059313;28;20047;-69
2021/11/19 01:16:20;;;;;;;17.42;7.30;;;12.20;99.90;;;;;;5092208;28;21360;-69
2021/11/19 01:18:53;;;;;;;24.63;8.82;;;12.20;99.90;;;;;;5061389;28;20055;-69
2021/11/19 01:21:38;;;;;;;17.95;6.60;;;12.20;99.90;;;;;;5092822;28;20040;-69
2021/11/19 01:24:04;;;;;;;15.85;7.53;;;12.20;99.90;;;;;;5061379;28;20040;-69
2021/11/19 01:26:33;;;;;;;13.57;6.82;;;12.20;99.90;;;;;;5059414;28;20049;-69
2021/11/19 01:29:03;;;;;;;24.75;8.05;;;12.20;99.90;;;;;;5061682;28;20044;-69
2021/11/19 01:31:37;;;;;;;18.90;7.28;;;12.20;99.90;;;;;;5062921;28;20494;-69
2021/11/19 01:34:04;;;;;;;16.75;7.10;;;12.20;99.90;;;;;;5058047;28;20044;-69
2021/11/19 01:36:30;;;;;;;15.02;7.10;;;12.20;99.90;;;;;;5061649;28;20076;-69
2021/11/19 01:38:56;;;;;;;23.33;7.28;;;12.20;99.90;;;;;;5057115;28;20079;-69
2021/11/19 01:41:31;;;;;;;21.05;7.38;;;12.20;99.90;;;;;;5060770;28;20127;-69
2021/11/19 01:43:57;;;;;;;;;;;12.20;99.90;;;;;;5059150;28;20052;-69
2021/11/19 01:46:31;;;;;;;17.80;7.25;;;12.10;99.90;;;;;;5091385;28;19989;-69
2021/11/19 01:48:57;;;;;;;20.30;7.05;;;12.20;99.90;;;;;;5057416;28;20136;-70
2021/11/19 01:51:34;;;;;;;20.70;6.82;;;12.10;99.90;;;;;;5060044;28;20128;-69
2021/11/19 01:54:18;;;;;;;17.40;6.85;;;12.10;99.90;;;;;;5060454;28;20040;-69
2021/11/19 01:56:55;;;;;;;13.77;6.18;;;12.20;99.90;;;;;;5059396;28;20097;-69
2021/11/19 01:59:38;;;;;;;13.38;6.43;;;12.10;99.90;;;;;;5057577;28;20048;-69
2021/11/19 02:02:08;;;;;;;15.82;7.55;;;12.10;99.90;;;;;;5060245;28;20050;-69
2021/11/19 02:04:38;;;;;;;12.38;5.85;;;12.10;99.90;;;;;;5090787;28;20129;-69
2021/11/19 02:07:20;;;;;;;16.92;6.80;;;12.10;99.90;;;;;;5058329;28;20048;-70
2021/11/19 02:10:15;;;;;;;16.25;6.45;;;12.10;99.90;;;;;;5057752;28;20134;-69
2021/11/19 02:13:02;;;;;;;16.92;6.18;;;12.10;99.90;;;;;;5059267;28;20136;-69
2021/11/19 02:15:53;;;;;;;17.05;6.38;;;12.10;99.90;;;;;;5060181;28;20047;-69
2021/11/19 02:18:40;;;;;;;13.80;6.22;;;12.10;99.90;;;;;;5048868;28;20057;-69
2021/11/19 02:21:14;;;;;;;20.05;7.03;;;12.10;99.90;;;;;;5058971;28;20545;-69
2021/11/19 02:23:49;;;;;;;17.52;7.43;;;12.10;99.90;;;;;;5061474;28;20554;-69
2021/11/19 02:26:18;;;;;;;20.08;6.65;;;12.10;99.90;;;;;;5061245;28;20063;-69
2021/11/19 02:28:47;;;;;;;13.80;6.57;;;12.10;99.90;;;;;;5062716;28;20029;-69
2021/11/19 02:31:36;;;;;;;17.45;6.93;;;12.10;99.90;;;;;;5057703;28;20048;-69
2021/11/19 02:34:05;;;;;;;17.45;6.88;;;12.10;99.90;;;;;;5060541;28;20506;-69
2021/11/19 02:36:42;;;;;;;13.02;6.13;;;12.10;99.90;;;;;;5060648;28;20090;-69
2021/11/19 02:39:25;;;;;;;15.85;6.90;;;12.10;99.90;;;;;;5056209;28;20072;-69
2021/11/19 02:41:55;;;;;;;19.05;7.05;;;12.10;99.90;;;;;;5067439;28;20037;-70
2021/11/19 02:44:25;;;;;;;12.02;6.13;;;12.00;99.90;;;;;;5062941;28;20036;-69
2021/11/19 02:46:59;;;;;;;18.83;6.82;;;12.10;99.90;;;;;;5060693;28;20048;-69
2021/11/19 02:49:25;;;;;;;16.70;6.65;;;12.00;99.90;;;;;;5057248;28;20044;-69
2021/11/19 02:51:52;;;;;;;15.68;7.30;;;12.00;99.90;;;;;;5059953;28;20047;-69
2021/11/19 02:54:21;;;;;;;22.15;7.47;;;12.10;99.90;;;;;;5062485;28;20041;-69
2021/11/19 02:56:48;;;;;;;13.80;7.03;;;12.10;99.90;;;;;;5093611;28;20379;-69
2021/11/19 02:59:16;;;;;;;17.23;7.90;;;12.00;99.90;;;;;;5057866;28;20048;-69
2021/11/19 03:01:46;;;;;;;19.30;7.55;;;12.10;99.90;;;;;;5063171;28;20032;-69
2021/11/19 03:04:16;;;;;;;15.20;7.32;;;12.10;99.90;;;;;;5065060;28;20036;-69
2021/11/19 03:06:50;;;;;;;16.73;7.55;;;12.10;99.90;;;;;;5061917;28;20041;-69
2021/11/19 03:09:26;;;;;;;16.15;6.97;;;12.10;99.90;;;;;;5060631;28;20082;-69
2021/11/19 03:11:52;;;;;;;18.40;8.05;;;12.20;99.90;;;;;;5059189;28;20039;-69
2021/11/19 03:14:19;;;;;;;22.20;8.27;;;12.10;99.90;;;;;;5062774;28;20028;-69
2021/11/19 03:16:45;;;;;;;21.85;7.57;;;12.10;99.90;;;;;;5061697;28;20044;-69
2021/11/19 03:19:11;;;;;;;22.38;9.82;;;12.20;99.90;;;;;;5059361;28;21662;-69
2021/11/19 03:21:39;;;;;;;17.65;7.45;;;12.20;99.90;;;;;;5063229;28;20135;-69
2021/11/19 03:24:05;;;;;;;18.42;7.55;;;12.20;99.90;;;;;;5047868;28;20124;-69
2021/11/19 03:26:33;;;;;;;20.50;7.20;;;12.20;99.90;;;;;;5060416;28;20051;-69
2021/11/19 03:28:59;;;;;;;18.98;7.57;;;12.20;99.90;;;;;;5058900;28;20098;-69
2021/11/19 03:31:26;;;;;;;14.73;6.20;;;12.20;99.90;;;;;;5058275;28;20059;-69
2021/11/19 03:33:53;;;;;;;15.73;7.30;;;12.10;99.90;;;;;;5063459;28;20377;-69
2021/11/19 03:36:21;;;;;;;17.67;6.63;;;12.20;99.90;;;;;;5062108;28;20056;-69
2021/11/19 03:38:50;;;;;;;15.27;6.95;;;12.20;99.90;;;;;;5065585;28;20512;-69
2021/11/19 03:41:20;;;;;;;15.85;7.18;;;12.20;99.90;;;;;;5064550;28;20040;-69
2021/11/19 03:43:55;;;;;;;13.05;6.50;;;12.20;99.90;;;;;;5064997;28;20047;-69
2021/11/19 03:46:31;;;;;;;16.57;6.80;;;12.20;99.90;;;;;;5064721;28;20542;-69
2021/11/19 03:48:57;;;;;;;16.88;6.97;;;12.20;99.90;;;;;;5061479;28;20040;-69
2021/11/19 03:51:31;;;;;;;20.45;7.10;;;12.20;99.90;;;;;;5063138;28;20494;-69
2021/11/19 03:53:58;;;;;;;14.38;7.28;;;12.20;99.90;;;;;;5063638;28;20036;-69
2021/11/19 03:56:24;;;;;;;16.90;6.90;;;12.20;99.90;;;;;;5051563;28;20401;-69
2021/11/19 03:58:51;;;;;;;16.05;7.13;;;12.20;99.90;;;;;;5059879;28;20395;-69
2021/11/19 04:01:27;;;;;;;17.35;7.13;;;12.20;99.90;;;;;;5064639;28;20060;-69
2021/11/19 04:03:54;;;;;;;19.42;7.50;;;12.20;99.90;;;;;;5061994;28;20040;-69
2021/11/19 04:06:21;;;;;;;18.98;7.15;;;12.20;99.90;;;;;;5065969;28;20037;-69
2021/11/19 04:08:47;;;;;;;16.45;7.00;;;12.20;99.90;;;;;;5065922;28;20041;-69
2021/11/19 04:11:14;;;;;;;16.42;6.78;;;12.20;99.90;;;;;;5059395;28;20103;-69
2021/11/19 04:13:40;;;;;;;17.05;7.88;;;12.20;99.90;;;;;;5063145;28;20051;-69
2021/11/19 04:16:11;;;;;;;15.18;7.63;;;12.30;99.90;;;;;;5065255;28;20082;-69
2021/11/19 04:18:37;;;;;;;19.00;8.13;;;12.20;99.90;;;;;;5062274;28;20068;-69
2021/11/19 04:21:03;;;;;;;16.25;7.53;;;12.20;99.90;;;;;;5061992;28;20098;-69
2021/11/19 04:23:30;;;;;;;16.98;8.23;;;12.20;99.90;;;;;;5098891;28;20425;-70
2021/11/19 04:25:57;;;;;;;24.40;8.30;;;12.20;99.90;;;;;;5065834;28;20406;-69
2021/11/19 04:28:23;;;;;;;21.38;7.70;;;12.30;99.90;;;;;;5063453;28;20139;-69
2021/11/19 04:30:52;;;;;;;22.38;8.23;;;12.20;99.90;;;;;;5060274;28;20119;-69
2021/11/19 04:33:18;;;;;;;16.70;7.72;;;12.20;99.90;;;;;;5069285;28;20522;-69
2021/11/19 04:35:46;;;;;;;18.05;7.97;;;12.20;99.90;;;;;;5065342;28;20047;-69
2021/11/19 04:38:13;;;;;;;17.77;7.15;;;12.30;99.90;;;;;;5064782;28;20037;-69
2021/11/19 04:40:39;;;;;;;21.48;8.77;;;12.20;99.90;;;;;;5061557;28;20055;-69
2021/11/19 04:43:10;;;;;;;11.75;6.13;;;12.20;99.90;;;;;;5063403;28;20055;-69
2021/11/19 04:45:37;;;;;;;20.08;7.57;;;12.20;99.90;;;;;;5093849;28;20655;-69
2021/11/19 04:48:04;;;;;;;18.08;7.57;;;12.20;99.90;;;;;;5064854;28;20059;-69
2021/11/19 04:50:35;;;;;;;16.27;7.47;;;12.20;99.90;;;;;;5063065;28;20037;-69
2021/11/19 04:53:01;;;;;;;18.33;7.18;;;12.20;99.90;;;;;;5065483;28;20068;-70
2021/11/19 04:55:28;;;;;;;16.33;7.00;;;12.20;99.90;;;;;;5067549;28;20071;-69
2021/11/19 04:57:53;;;;;;;16.17;7.15;;;12.20;99.90;;;;;;5061279;28;20101;-69
2021/11/19 05:00:30;;;;;;;11.60;7.70;;;12.20;99.90;;;;;;5064297;28;20040;-69
2021/11/19 05:02:56;;;;;;;14.25;7.45;;;12.20;99.90;;;;;;5063456;28;20048;-69
2021/11/19 05:05:23;;;;;;;12.60;7.25;;;12.20;99.90;;;;;;5051688;28;20048;-69
2021/11/19 05:07:49;;;;;;;16.60;7.18;;;12.20;99.90;;;;;;5064362;28;20431;-69
2021/11/19 05:10:16;;;;;;;19.05;8.50;;;12.20;99.90;;;;;;5060847;28;20074;-69
2021/11/19 05:12:45;;;;;;;14.85;7.20;;;12.20;99.90;;;;;;5060552;28;20037;-69
2021/11/19 05:15:11;;;;;;;20.45;8.27;;;12.20;99.90;;;;;;5065253;28;20124;-69
2021/11/19 05:17:38;;;;;;;17.15;8.35;;;12.30;99.90;;;;;;5060889;28;20051;-69
2021/11/19 05:20:06;;;;;;;21.33;7.45;;;12.30;99.90;;;;;;5061875;28;20028;-69
2021/11/19 05:22:32;;;;;;;17.67;6.90;;;12.30;99.90;;;;;;5059543;28;20040;-69
2021/11/19 05:24:58;;;;;;;21.15;7.53;;;12.30;99.90;;;;;;5062675;28;20044;-69
2021/11/19 05:27:24;;;;;;;17.70;7.45;;;12.30;99.90;;;;;;5058915;28;20094;-70
2021/11/19 05:29:50;;;;;;;20.05;8.73;;;12.30;99.90;;;;;;5055856;28;20123;-69
2021/11/19 05:32:16;;;;;;;15.23;7.38;;;12.20;99.90;;;;;;5060835;28;20039;-69
2021/11/19 05:34:43;;;;;;;17.50;7.45;;;12.20;99.90;;;;;;5057779;28;20044;-69
2021/11/19 05:37:10;;;;;;;23.80;9.48;;;12.20;99.90;;;;;;5093577;28;20044;-69
2021/11/19 05:39:36;;;;;;;22.42;7.60;;;12.20;99.90;;;;;;5058025;28;20367;-69
2021/11/19 05:42:03;;;;;;;18.15;7.57;;;12.20;99.90;;;;;;5063965;28;20087;-69
2021/11/19 05:44:29;;;;;;;21.65;7.90;;;12.20;99.90;;;;;;5058988;28;20075;-69
2021/11/19 05:46:55;;;;;;;15.68;7.72;;;12.30;99.90;;;;;;5059961;28;20074;-69
2021/11/19 05:49:23;;;;;;;20.80;8.18;;;12.20;99.90;;;;;;5057356;28;20063;-69
2021/11/19 05:51:51;;;;;;;19.75;7.82;;;12.20;99.90;;;;;;5060567;28;20035;-70
2021/11/19 05:54:20;;;;;;;16.27;6.82;;;12.20;99.90;;;;;;5058339;28;20035;-69
2021/11/19 05:56:47;;;;;;;23.05;8.20;;;12.20;99.90;;;;;;5057515;28;20065;-69
2021/11/19 05:59:12;;;;;;;20.23;6.85;;;12.30;99.90;;;;;;5054297;28;20486;-69
2021/11/19 06:01:38;;;;;;;14.45;7.50;;;12.20;99.90;;;;;;5056454;28;20051;-69
2021/11/19 06:04:04;;;;;;;18.45;7.97;;;12.20;99.90;;;;;;5062233;28;20447;-69
2021/11/19 06:06:30;;;;;;;17.63;7.55;;;12.20;99.90;;;;;;5058627;28;20052;-69
2021/11/19 06:08:57;;;;;;;24.27;7.57;;;12.10;99.90;;;;;;5058910;28;20059;-69
2021/11/19 06:11:33;;;;;;;22.02;8.95;;;12.20;99.90;;;;;;5063293;28;20505;-69
2021/11/19 06:14:06;;;;;;;22.10;9.05;;;12.10;99.90;;;;;;5057444;28;20044;-69
2021/11/19 06:16:39;;;;;;;18.33;7.63;;;12.20;99.90;;;;;;5059579;28;20048;-69
2021/11/19 06:19:08;;;;;;;19.48;9.02;;;12.20;99.90;;;;;;5056222;28;20043;-69
2021/11/19 06:21:44;;;;;;;17.55;8.65;;;12.20;99.90;;;;;;5057757;28;20745;-69
2021/11/19 06:24:13;;;;;;;15.02;8.95;;;12.20;99.90;;;;;;5058748;28;20068;-69
2021/11/19 06:26:42;;;;;;;20.17;8.63;;;12.20;99.90;;;;;;5058164;28;20419;-69
2021/11/19 06:29:08;;;;;;;15.98;7.55;;;12.20;99.90;;;;;;5056673;28;21477;-69
2021/11/19 06:31:37;;;;;;;19.55;8.65;;;12.20;99.90;;;;;;5066645;27;20059;-69
2021/11/19 06:34:04;;;;;;;20.75;7.93;;;12.10;99.90;;;;;;5092628;28;20040;-69
2021/11/19 06:36:31;;;;;;;15.35;7.68;;;12.20;99.90;;;;;;5059306;28;20066;-69
2021/11/19 06:38:58;;;;;;;18.85;8.10;;;12.20;99.90;;;;;;5056395;28;20047;-69
2021/11/19 06:41:24;;;;;;;16.60;8.65;;;12.20;99.90;;;;;;5057880;28;20053;-69
2021/11/19 06:43:50;;;;;;;20.48;9.27;;;12.20;99.90;;;;;;5059714;28;20042;-69
2021/11/19 06:46:17;;;;;;;18.15;8.40;;;12.20;99.90;;;;;;5060503;28;20461;-69
2021/11/19 06:48:44;;;;;;;16.23;8.65;;;12.20;99.90;;;;;;5058487;28;20032;-69
2021/11/19 06:51:11;;;;;;;16.83;9.40;;;12.20;99.90;;;;;;5057206;28;20429;-69
2021/11/19 06:53:36;;;;;;;15.73;8.32;;;12.20;99.90;;;;;;5060107;28;20478;-69
2021/11/19 06:56:03;;;;;;;23.05;9.23;;;12.20;99.90;;;;;;5058728;28;20071;-69
2021/11/19 06:58:29;;;;;;;23.60;8.60;;;12.20;99.90;;;;;;5058197;28;20051;-69
2021/11/19 07:00:56;;;;;;;19.92;7.90;;;12.20;99.90;;;;;;5056028;28;20488;-69
2021/11/19 07:03:23;;;;;;;23.48;8.30;;;12.20;99.90;;;;;;5058411;28;20057;-69
2021/11/19 07:05:50;;;;;;;21.00;8.30;;;12.20;99.90;;;;;;5060288;28;20052;-69
2021/11/19 07:08:16;;;;;;;25.27;8.15;;;12.20;99.90;;;;;;5060677;28;20037;-69
2021/11/19 07:10:44;;;;;;;20.95;8.90;;;12.20;99.90;;;;;;5056265;28;20050;-69
2021/11/19 07:13:12;;;;;;;15.23;8.00;;;12.20;99.90;;;;;;5058190;28;20106;-69
2021/11/19 07:15:39;;;;;;;18.70;7.35;;;12.20;99.90;;;;;;5060627;28;20044;-70
2021/11/19 07:18:05;;;;;;;20.42;8.10;;;12.20;99.90;;;;;;5057546;28;20604;-69
2021/11/19 07:20:33;;;;;;;17.42;7.18;;;12.20;99.90;;;;;;5052925;28;20575;-70
2021/11/19 07:22:59;;;;;;;20.45;7.85;;;12.10;99.90;;;;;;5058957;28;20040;-70
2021/11/19 07:25:28;;;;;;;24.25;8.02;;;12.20;99.90;;;;;;5062189;28;20056;-70
2021/11/19 07:27:57;;;;;;;17.90;7.20;;;12.20;99.90;;;;;;5056765;28;20048;-70
2021/11/19 07:30:38;;;;;;;15.57;6.90;;;12.10;99.90;;;;;;5087195;28;20041;-70
2021/11/19 07:33:04;;;;;;;16.00;6.88;;;12.10;99.90;;;;;;5056126;28;20051;-70
2021/11/19 07:35:31;;;;;;;23.17;7.22;;;12.20;99.90;;;;;;5056247;28;20052;-70
2021/11/19 07:37:56;;;;;;;28.25;7.43;;;12.10;99.90;;;;;;5057879;28;20040;-70
2021/11/19 07:40:26;;;;;;;21.27;7.80;;;12.10;99.90;;;;;;5087854;28;20101;-70
2021/11/19 07:42:52;;;;;;;16.85;6.75;;;12.20;99.90;;;;;;5089657;28;20048;-70
2021/11/19 07:45:18;;;;;;;22.35;6.95;;;12.10;99.90;;;;;;5057950;28;20036;-70
2021/11/19 07:47:44;;;;;;;17.45;7.05;;;12.20;99.90;;;;;;5039044;28;20056;-70
2021/11/19 07:50:15;;;;;;;18.17;6.28;;;12.20;99.90;;;;;;5089319;28;20040;-70
2021/11/19 07:52:41;;;;;;;15.82;6.25;;;12.20;99.90;;;;;;5060081;28;20495;-70
2021/11/19 07:55:08;;;;;;;18.27;6.78;;;12.20;99.90;;;;;;5089690;28;20045;-70
2021/11/19 07:57:34;;;;;;;21.33;7.47;;;12.10;99.90;;;;;;5057474;28;20032;-70
2021/11/19 08:00:00;;;;;;;21.98;8.25;;;12.20;99.90;;;;;;5057734;28;20075;-70
2021/11/19 08:02:26;;;;;;;15.75;6.25;;;12.50;99.90;;;;;;5056978;28;20059;-70
2021/11/19 08:04:52;;;;;;;19.85;6.32;;;12.20;99.90;;;;;;5091117;28;20036;-70
2021/11/19 08:07:18;;;;;;;24.25;6.10;;;12.20;99.90;;;;;;5058240;28;20043;-70
2021/11/19 08:09:44;;;;;;;18.50;6.07;;;12.30;99.90;;;;;;5053560;28;20045;-70
2021/11/19 08:12:10;;;;;;;19.27;5.72;;;12.20;99.90;;;;;;5059488;28;20047;-69
2021/11/19 08:14:36;;;;;;;18.00;6.63;;;12.20;99.90;;;;;;5054886;28;20071;-70
2021/11/19 08:17:14;;;;;;;21.80;5.32;;;12.20;99.90;;;;;;5057470;28;20032;-70
2021/11/19 08:19:44;;;;;;;17.83;5.05;;;12.30;99.90;;;;;;5058305;28;20078;-70
2021/11/19 08:22:13;;;;;;;20.60;6.10;;;12.30;99.90;;;;;;5061854;28;20051;-70
2021/11/19 08:24:39;;;;;;;13.82;5.22;;;12.30;99.90;;;;;;5058138;28;20541;-70
2021/11/19 08:27:12;;;;;;;11.77;4.10;;;12.30;99.90;;;;;;5060376;28;20072;-70
2021/11/19 08:29:41;;;;;;;24.70;5.22;;;12.40;99.90;;;;;;5043938;28;20041;-70
2021/11/19 08:32:09;;;;;;;17.02;4.85;;;12.40;99.90;;;;;;5059034;28;20551;-70
2021/11/19 08:34:35;;;;;;;14.55;4.25;;;12.40;99.90;;;;;;5060873;28;20132;-70
2021/11/19 08:37:02;;;;;;;16.55;3.92;;;12.50;99.90;;;;;;5060540;28;20048;-70
2021/11/19 08:39:28;;;;;;;17.60;4.90;;;12.40;99.90;;;;;;5060216;28;20052;-70
2021/11/19 08:41:54;;;;;;;14.60;4.00;;;12.40;99.90;;;;;;5060186;28;20036;-70
2021/11/19 08:44:21;;;;;;;16.95;4.35;;;12.40;99.90;;;;;;5060722;28;20036;-70
2021/11/19 08:46:49;;;;;;;13.25;3.55;;;12.40;99.90;;;;;;5060368;28;20052;-70
2021/11/19 08:49:19;;;;;;;16.55;3.92;;;12.50;99.90;;;;;;5091111;27;20033;-70
2021/11/19 08:51:46;;;;;;;13.50;3.78;;;12.60;99.90;;;;;;5061622;28;20051;-70
2021/11/19 08:54:13;;;;;;;17.23;4.47;;;12.60;99.90;;;;;;5057045;28;20351;-70
2021/11/19 08:56:43;;;;;;;14.35;4.05;;;12.60;99.90;;;;;;5062131;28;20085;-70
2021/11/19 08:59:11;;;;;;;14.07;3.45;;;12.60;99.90;;;;;;5058626;28;21063;-70
2021/11/19 09:01:39;;;;;;;14.65;4.05;;;12.60;99.90;;;;;;5062102;28;20045;-70
2021/11/19 09:04:06;;;;;;;13.85;4.07;;;12.70;99.90;;;;;;5061962;28;20045;-70
2021/11/19 09:06:33;;;;;;;14.77;3.40;;;12.60;99.90;;;;;;5058091;28;20036;-70
2021/11/19 09:08:59;;;;;;;16.80;3.75;;;12.70;99.90;;;;;;5060854;28;20042;-70
2021/11/19 09:11:26;;;;;;;16.88;3.92;;;12.70;99.90;;;;;;5062653;28;20049;-70
2021/11/19 09:13:54;;;;;;;12.65;3.50;;;12.70;99.90;;;;;;5061207;28;20091;-70
2021/11/19 09:16:24;;;;;;;17.15;4.45;;;12.80;99.90;;;;;;5062356;28;20040;-70
2021/11/19 09:19:16;;;;;;;21.55;3.53;;;12.70;99.90;;;;;;5044843;28;20052;-70
2021/11/19 09:21:52;;;;;;;13.07;2.75;;;12.80;99.90;;;;;;5072525;28;20049;-70
2021/11/19 09:24:28;;;;;;;19.80;3.50;;;12.80;99.90;;;;;;5062231;28;20123;-70
2021/11/19 09:27:01;;;;;;;28.38;3.28;;;12.90;99.90;;;;;;5060798;28;20036;-70
2021/11/19 09:29:27;;;;;;;19.55;3.78;;;12.90;99.90;;;;;;5057328;28;20036;-70
2021/11/19 09:31:53;;;;;;;11.45;2.50;;;13.00;99.90;;;;;;5060662;28;20040;-70
2021/11/19 09:34:20;;;;;;;10.75;2.58;;;13.00;99.90;;;;;;5060150;28;20045;-70
2021/11/19 09:36:45;;;;;;;15.77;3.08;;;13.00;99.90;;;;;;5060361;28;20047;-70
2021/11/19 09:39:14;;;;;;;14.73;2.63;;;13.10;99.90;;;;;;5057169;28;20041;-70
2021/11/19 09:41:48;;;;;;;12.55;2.70;;;13.10;99.90;;;;;;5059708;28;20080;-69
2021/11/19 09:44:52;;;;;;;13.63;2.40;;;13.10;99.90;;;;;;5060334;28;20041;-70
2021/11/19 09:47:24;;;;;;;11.82;2.38;;;13.20;99.90;;;;;;5058899;28;20051;-70
2021/11/19 09:50:17;;;;;;;14.82;2.78;;;13.20;99.90;;;;;;5055404;28;20074;-70
2021/11/19 09:53:18;;;;;;;16.63;3.03;;;13.20;99.90;;;;;;5089514;28;20037;-70
2021/11/19 09:55:43;;;;;;;9.13;2.05;;;13.20;99.90;;;;;;5060029;28;20048;-70
2021/11/19 09:58:49;;;;;;;15.68;2.70;;;13.20;99.90;;;;;;5061878;28;20072;-70
2021/11/19 10:01:17;;;;;;;13.25;2.33;;;13.20;99.90;;;;;;5058189;28;20089;-70
2021/11/19 10:03:59;;;;;;;13.90;2.35;;;13.10;99.90;;;;;;5058597;28;20884;-70
2021/11/19 10:06:54;;;;;;;13.27;2.60;;;13.20;99.90;;;;;;5061691;28;20048;-69
2021/11/19 10:09:47;;;;;;;13.07;2.65;;;13.10;99.90;;;;;;5088070;28;20051;-70
2021/11/19 10:12:22;;;;;;;14.90;3.58;;;13.10;99.90;;;;;;5057078;28;21509;-69
2021/11/19 10:14:58;;;;;;;11.63;3.17;;;13.10;99.90;;;;;;5057850;28;20036;-69
2021/11/19 10:17:42;;;;;;;12.07;3.53;;;13.10;99.90;;;;;;5056667;28;20123;-69
2021/11/19 10:20:12;;;;;;;13.85;2.55;;;13.10;99.90;;;;;;5060160;28;20045;-69
2021/11/19 10:23:12;;;;;;;15.95;2.55;;;13.10;99.90;;;;;;5073885;28;20036;-69
2021/11/19 10:25:46;;;;;;;16.42;2.35;;;13.20;99.90;;;;;;5058207;28;20623;-69
2021/11/19 10:28:25;;;;;;;13.48;2.28;;;13.20;99.90;;;;;;5059026;28;20057;-69
2021/11/19 10:30:54;;;;;;;9.32;2.25;;;13.20;99.90;;;;;;5053447;28;20036;-69
2021/11/19 10:33:27;;;;;;;10.45;2.63;;;13.20;99.90;;;;;;5057305;28;20056;-69
2021/11/19 10:36:11;;;;;;;12.40;2.55;;;13.20;99.90;;;;;;5059300;28;20449;-69
2021/11/19 10:38:56;;;;;;;9.80;2.13;;;13.20;99.90;;;;;;5059125;28;20099;-69
2021/11/19 10:41:46;;;;;;;11.93;2.70;;;13.20;99.90;;;;;;5058179;28;20580;-69
2021/11/19 10:44:33;;;;;;;17.60;2.55;;;13.20;99.90;;;;;;5057049;28;20040;-70
2021/11/19 10:47:04;;;;;;;16.02;2.25;;;13.20;99.90;;;;;;5057394;28;20041;-69
2021/11/19 10:50:07;;;;;;;12.13;2.40;;;13.20;99.90;;;;;;5054995;28;20052;-69
2021/11/19 10:53:00;;;;;;;8.85;1.65;;;13.20;99.90;;;;;;5058990;28;20058;-69
2021/11/19 10:56:03;;;;;;;13.27;2.80;;;13.20;99.90;;;;;;5091140;28;20514;-69
2021/11/19 10:58:44;;;;;;;12.23;1.83;;;13.30;99.90;;;;;;5058919;28;20508;-69
2021/11/19 11:01:14;;;;;;;14.38;2.15;;;13.20;99.90;;;;;;5054263;28;20067;-69
2021/11/19 11:03:57;;;;;;;13.05;2.03;;;13.30;99.90;;;;;;5057158;28;20048;-69
2021/11/19 11:06:52;;;;;;;11.63;2.53;;;13.30;99.90;;;;;;5089846;28;20055;-69
2021/11/19 11:09:21;;;;;;;15.10;2.22;;;13.30;99.90;;;;;;5055224;28;21771;-69
2021/11/19 11:12:11;;;;;;;12.82;1.95;;;13.30;99.90;;;;;;5058451;28;20049;-69
2021/11/19 11:14:40;;;;;;;14.80;1.85;;;13.30;99.90;;;;;;5055254;28;20060;-69
2021/11/19 11:17:32;;;;;;;11.98;2.10;;;13.30;99.90;;;;;;5057058;28;20551;-69
2021/11/19 11:19:59;;;;;;;12.50;2.00;;;13.40;99.90;;;;;;5056517;28;20033;-69
2021/11/19 11:22:31;;;;;;;10.68;1.95;;;13.40;99.90;;;;;;5058500;28;20083;-69
2021/11/19 11:25:01;;;;;;;11.30;2.13;;;13.40;99.90;;;;;;5060881;28;20123;-69
2021/11/19 11:27:49;;;;;;;13.95;3.17;;;13.40;99.90;;;;;;5059453;28;20438;-69
2021/11/19 11:30:21;;;;;;;13.20;1.90;;;13.40;99.90;;;;;;5056878;28;20414;-70
2021/11/19 11:32:53;;;;;;;13.95;2.40;;;13.50;99.90;;;;;;5062974;28;20048;-69
2021/11/19 11:35:51;;;;;;;16.77;3.35;;;13.50;99.90;;;;;;5062493;28;20072;-70
2021/11/19 11:38:46;;;;;;;9.38;2.15;;;13.40;99.90;;;;;;5057788;28;20040;-69
2021/11/19 11:41:18;;;;;;;9.85;1.95;;;13.40;99.90;;;;;;5037508;28;20036;-69
2021/11/19 11:44:14;;;;;;;12.93;2.40;;;13.40;99.90;;;;;;5063258;28;20128;-70
2021/11/19 11:47:16;;;;;;;11.55;2.40;;;13.40;99.90;;;;;;5058631;28;20060;-70
2021/11/19 11:49:52;;;;;;;11.25;2.50;;;13.40;99.90;;;;;;5036131;28;20064;-69
2021/11/19 11:52:23;;;;;;;12.70;1.40;;;13.40;99.90;;;;;;5043963;28;20049;-69
2021/11/19 11:55:03;;;;;;;19.60;2.67;;;13.30;99.90;;;;;;5059575;28;20151;-70
2021/11/19 11:57:29;;;;;;;16.70;2.80;;;13.40;99.90;;;;;;5060982;28;20068;-70
2021/11/19 12:00:00;;;;;;;10.70;2.40;;;13.40;99.90;;;;;;5054871;28;20048;-70
2021/11/19 12:02:44;;;;;;;25.98;3.67;;;13.30;99.90;;;;;;5062120;28;20071;-69
2021/11/19 12:05:39;;;;;;;7.82;1.65;;;13.30;99.90;;;;;;5064433;28;20036;-69
2021/11/19 12:08:14;;;;;;;15.17;2.87;;;13.40;99.90;;;;;;5060491;28;20048;-69
2021/11/19 12:11:14;;;;;;;10.15;1.88;;;13.40;99.90;;;;;;5062262;28;20311;-70
2021/11/19 12:13:56;;;;;;;8.85;1.70;;;13.40;99.90;;;;;;5062829;28;20130;-70
2021/11/19 12:16:38;;;;;;;11.75;2.58;;;13.40;99.90;;;;;;5079973;28;20102;-69
2021/11/19 12:19:09;;;;;;;8.70;1.30;;;13.40;99.90;;;;;;5048263;28;20061;-70
2021/11/19 12:21:48;;;;;;;14.15;2.45;;;13.40;99.90;;;;;;5068408;28;20497;-70
2021/11/19 12:24:17;;;;;;;10.07;1.60;;;13.50;99.90;;;;;;5064261;28;20044;-69
2021/11/19 12:27:01;;;;;;;14.70;2.88;;;13.40;99.90;;;;;;5063776;28;20045;-70
2021/11/19 12:30:04;;;;;;;12.75;2.35;;;13.50;99.90;;;;;;5059823;28;20155;-69
2021/11/19 12:32:39;;;;;;;17.50;2.13;;;13.50;99.90;;;;;;5065153;28;20049;-69
2021/11/19 12:35:14;;;;;;;16.58;2.40;;;13.60;99.90;;;;;;5067019;28;20037;-69
2021/11/19 12:38:11;;;;;;;10.63;1.83;;;13.60;99.90;;;;;;5063862;28;20096;-69
2021/11/19 12:40:55;;;;;;;10.88;1.60;;;13.70;99.90;;;;;;5055074;28;20048;-70
2021/11/19 12:43:27;;;;;;;13.55;1.50;;;13.70;99.90;;;;;;5062111;28;20048;-69
2021/11/19 12:46:31;;;;;;;13.07;1.50;;;13.70;99.90;;;;;;5062044;28;20045;-69
2021/11/19 12:49:09;;;;;;;8.63;2.40;;;13.70;99.90;;;;;;5061729;28;20067;-69
2021/11/19 12:51:56;;;;;;;6.38;1.20;;;13.70;99.90;;;;;;5062654;28;20049;-69
2021/11/19 12:54:30;;;;;;;8.10;1.45;;;13.80;99.90;;;;;;5063701;28;20064;-69
2021/11/19 12:57:34;;;;;;;13.52;2.28;;;13.70;99.90;;;;;;5063767;28;20071;-69
2021/11/19 13:00:00;;;;;;;12.95;1.70;;;13.70;99.90;;;;;;5059307;28;20098;-69
2021/11/19 13:02:42;;;;;;;10.82;1.63;;;13.60;99.90;;;;;;5064561;28;20056;-69